Time;durP1;ratioP1;P1;durP2;ratioP2;P2;SDS_P1;SDS_P2;PMS_P1;PMS_P2;Temp;Humidity;BMP_temperature;BMP_pressure;BME280_temperature;BME280_humidity;BME280_pressure;Samples;Min_cycle;Max_cycle;Signal;HPM_P1;HPM_P2
2023/03/17 00:01:28;;;;;;;2.38;2.00;;;13.30;73.00;;;;;;4988344;28;20030;-83
2023/03/17 00:03:54;;;;;;;3.00;2.28;;;13.30;73.10;;;;;;4983603;28;20035;-85
2023/03/17 00:06:27;;;;;;;2.45;2.25;;;13.20;72.90;;;;;;4983933;28;20034;-84
2023/03/17 00:08:56;;;;;;;2.15;1.95;;;13.20;73.00;;;;;;4986794;28;20170;-84
2023/03/17 00:11:23;;;;;;;3.08;2.08;;;13.20;73.00;;;;;;4967091;28;20058;-84
2023/03/17 00:13:49;;;;;;;3.55;2.60;;;13.10;72.90;;;;;;4983456;28;20096;-83
2023/03/17 00:16:22;;;;;;;6.00;2.83;;;13.10;73.00;;;;;;4983349;28;20533;-86
2023/03/17 00:18:49;;;;;;;;;;;13.10;73.00;;;;;;4985078;28;20034;-86
2023/03/17 00:21:21;;;;;;;3.97;2.30;;;13.10;73.00;;;;;;4968943;28;19960;-86
2023/03/17 00:23:50;;;;;;;5.10;2.20;;;13.00;72.80;;;;;;4987966;28;20034;-87
2023/03/17 00:26:18;;;;;;;2.60;2.33;;;12.90;72.70;;;;;;4985248;28;20356;-84
2023/03/17 00:28:45;;;;;;;4.00;2.90;;;12.90;73.20;;;;;;4985939;28;20035;-85
2023/03/17 00:31:26;;;;;;;2.42;2.15;;;12.80;72.60;;;;;;4985184;28;20125;-86
2023/03/17 00:33:53;;;;;;;3.80;2.03;;;12.80;72.70;;;;;;4979957;28;20097;-86
2023/03/17 00:36:30;;;;;;;5.45;2.50;;;12.80;72.80;;;;;;4993193;28;20053;-85
2023/03/17 00:39:02;;;;;;;4.43;2.38;;;12.80;72.90;;;;;;4998209;28;20038;-86
2023/03/17 00:41:28;;;;;;;3.83;2.78;;;12.70;72.70;;;;;;5002277;28;20047;-87
2023/03/17 00:43:57;;;;;;;6.03;2.20;;;12.70;72.90;;;;;;4985483;28;20058;-86
2023/03/17 00:46:34;;;;;;;4.82;2.35;;;12.60;72.70;;;;;;4986270;28;20524;-86
2023/03/17 00:49:18;;;;;;;6.13;2.20;;;12.60;72.80;;;;;;4984935;28;20149;-85
2023/03/17 00:51:45;;;;;;;2.58;1.80;;;12.60;72.90;;;;;;4992816;28;20142;-85
2023/03/17 00:54:15;;;;;;;7.57;2.40;;;12.50;72.70;;;;;;4986019;28;20046;-85
2023/03/17 00:56:43;;;;;;;2.75;2.30;;;12.50;72.70;;;;;;4985094;28;20058;-85
2023/03/17 00:59:34;;;;;;;5.13;2.65;;;12.50;72.80;;;;;;4984714;28;20598;-85
2023/03/17 01:02:00;;;;;;;3.67;2.05;;;12.40;72.70;;;;;;4980726;28;20042;-85
2023/03/17 01:04:26;;;;;;;6.30;2.67;;;12.40;72.70;;;;;;4984264;28;20222;-83
2023/03/17 01:06:53;;;;;;;3.10;2.17;;;12.40;72.70;;;;;;4960152;28;20059;-81
2023/03/17 01:09:24;;;;;;;5.15;3.17;;;12.40;72.80;;;;;;4980530;28;20034;-82
2023/03/17 01:11:50;;;;;;;3.67;2.08;;;12.30;72.70;;;;;;4981216;28;20035;-81
2023/03/17 01:14:16;;;;;;;7.53;2.65;;;12.30;72.70;;;;;;4980932;28;20509;-81
2023/03/17 01:16:43;;;;;;;4.82;2.78;;;12.30;72.80;;;;;;4981916;28;20168;-82
2023/03/17 01:19:11;;;;;;;4.80;2.25;;;12.20;72.60;;;;;;4982752;28;20522;-81
2023/03/17 01:21:38;;;;;;;4.43;3.65;;;12.20;72.70;;;;;;4982873;28;20037;-81
2023/03/17 01:24:05;;;;;;;4.93;2.45;;;12.20;72.70;;;;;;4965042;28;20196;-82
2023/03/17 01:26:31;;;;;;;5.50;2.42;;;12.20;72.80;;;;;;4988157;28;20038;-82
2023/03/17 01:28:58;;;;;;;4.88;2.58;;;12.20;72.80;;;;;;4988237;28;20041;-82
2023/03/17 01:31:25;;;;;;;6.22;3.10;;;12.10;72.60;;;;;;4983764;28;20034;-80
2023/03/17 01:33:51;;;;;;;4.70;2.33;;;12.20;72.90;;;;;;4986154;28;20034;-82
2023/03/17 01:36:18;;;;;;;5.05;3.15;;;12.10;72.80;;;;;;4982940;28;20613;-82
2023/03/17 01:38:46;;;;;;;4.25;2.40;;;12.10;72.80;;;;;;4987519;28;20116;-82
2023/03/17 01:41:13;;;;;;;4.03;2.30;;;12.10;72.80;;;;;;4985272;28;20038;-87
2023/03/17 01:43:39;;;;;;;5.05;2.42;;;12.10;72.80;;;;;;4970260;28;20042;-87
2023/03/17 01:46:26;;;;;;;5.70;2.42;;;12.10;73.40;;;;;;4985733;28;20076;-87
2023/03/17 01:49:05;;;;;;;3.63;2.47;;;12.00;72.70;;;;;;4987352;28;20061;-87
2023/03/17 01:51:41;;;;;;;5.15;2.47;;;12.10;72.90;;;;;;4985672;28;20054;-87
2023/03/17 01:54:13;;;;;;;4.72;2.38;;;12.00;72.70;;;;;;4987695;28;20442;-87
2023/03/17 01:56:42;;;;;;;7.38;2.42;;;12.00;72.70;;;;;;4971935;28;20085;-85
2023/03/17 01:59:13;;;;;;;4.65;3.05;;;12.00;72.80;;;;;;4970948;28;20026;-87
2023/03/17 02:01:44;;;;;;;4.45;2.67;;;12.00;72.80;;;;;;4985640;28;20583;-85
2023/03/17 02:04:13;;;;;;;6.10;2.50;;;12.00;72.80;;;;;;4988439;28;20173;-87
2023/03/17 02:06:40;;;;;;;6.22;3.65;;;12.00;72.80;;;;;;4987931;28;20093;-87
2023/03/17 02:09:09;;;;;;;4.80;2.45;;;11.90;72.70;;;;;;4991431;28;20030;-86
2023/03/17 02:11:36;;;;;;;7.40;2.97;;;11.90;72.80;;;;;;4994775;28;20086;-87
2023/03/17 02:14:02;;;;;;;4.88;2.40;;;11.90;72.80;;;;;;4987006;28;20034;-86
2023/03/17 02:16:29;;;;;;;4.97;2.40;;;11.90;72.80;;;;;;4987963;28;20030;-84
2023/03/17 02:18:55;;;;;;;6.03;2.13;;;11.80;72.70;;;;;;4986486;28;20545;-86
2023/03/17 02:21:40;;;;;;;4.80;2.85;;;11.80;72.80;;;;;;4985512;28;20053;-86
2023/03/17 02:24:24;;;;;;;4.97;2.50;;;11.70;72.70;;;;;;4981694;28;20053;-85
2023/03/17 02:26:54;;;;;;;5.00;2.80;;;11.70;72.70;;;;;;4985578;28;20718;-85
2023/03/17 02:29:22;;;;;;;4.13;2.40;;;11.70;72.70;;;;;;4995204;28;20044;-84
2023/03/17 02:31:48;;;;;;;5.47;2.22;;;11.60;72.50;;;;;;4988022;28;20030;-84
2023/03/17 02:34:14;;;;;;;5.25;2.88;;;11.60;72.60;;;;;;4991156;28;20297;-85
2023/03/17 02:36:41;;;;;;;4.00;2.10;;;11.50;72.50;;;;;;4982343;28;20038;-83
2023/03/17 02:39:07;;;;;;;3.15;2.33;;;11.50;72.50;;;;;;4990115;28;20037;-85
2023/03/17 02:41:35;;;;;;;6.68;2.72;;;11.50;72.60;;;;;;4986611;28;20022;-83
2023/03/17 02:44:01;;;;;;;6.22;2.63;;;11.40;72.40;;;;;;4987915;28;20105;-87
2023/03/17 02:46:27;;;;;;;3.83;2.08;;;11.40;72.50;;;;;;4983579;28;20037;-86
2023/03/17 02:48:53;;;;;;;4.18;2.30;;;11.40;72.60;;;;;;4988140;28;20308;-86
2023/03/17 02:51:21;;;;;;;5.28;2.45;;;11.30;72.50;;;;;;4983252;28;20022;-87
2023/03/17 02:53:47;;;;;;;3.35;2.58;;;11.30;72.50;;;;;;4992613;28;20017;-87
2023/03/17 02:56:13;;;;;;;5.95;2.80;;;11.30;72.60;;;;;;4984638;28;20026;-87
2023/03/17 02:58:39;;;;;;;14.50;3.00;;;11.30;72.70;;;;;;4988741;28;20096;-86
2023/03/17 03:01:05;;;;;;;5.07;2.30;;;11.30;72.70;;;;;;4990003;28;20114;-87
2023/03/17 03:03:31;;;;;;;5.10;2.30;;;11.30;72.80;;;;;;4988709;28;20046;-88
2023/03/17 03:05:57;;;;;;;3.75;2.70;;;11.20;72.60;;;;;;4982739;28;20085;-85
2023/03/17 03:08:25;;;;;;;5.30;2.42;;;11.30;72.80;;;;;;4988013;28;20536;-85
2023/03/17 03:10:51;;;;;;;4.18;2.25;;;11.30;72.80;;;;;;4989409;28;20268;-86
2023/03/17 03:13:17;;;;;;;6.00;2.38;;;11.20;72.60;;;;;;4984973;28;20034;-85
2023/03/17 03:15:43;;;;;;;4.80;2.28;;;11.20;72.70;;;;;;4987868;28;20517;-84
2023/03/17 03:18:08;;;;;;;4.00;2.60;;;11.20;72.70;;;;;;4982322;28;20023;-83
2023/03/17 03:20:35;;;;;;;5.75;2.28;;;11.20;72.80;;;;;;4985279;28;20074;-85
2023/03/17 03:23:01;;;;;;;3.42;2.20;;;11.10;73.10;;;;;;4988608;28;20033;-86
2023/03/17 03:25:27;;;;;;;7.57;2.35;;;11.10;72.60;;;;;;4987768;28;20046;-89
2023/03/17 03:27:53;;;;;;;5.13;2.28;;;11.10;72.70;;;;;;4991335;28;20466;-88
2023/03/17 03:30:20;;;;;;;3.63;2.15;;;11.10;72.70;;;;;;4990395;28;20042;-87
2023/03/17 03:32:48;;;;;;;4.10;1.85;;;11.00;72.60;;;;;;4986454;28;20481;-87
2023/03/17 03:35:14;;;;;;;4.95;1.90;;;11.00;73.10;;;;;;4982533;28;20027;-87
2023/03/17 03:37:40;;;;;;;4.28;1.90;;;11.00;72.60;;;;;;4989315;28;20034;-87
2023/03/17 03:40:07;;;;;;;5.63;2.35;;;11.00;72.70;;;;;;4989771;28;20047;-88
2023/03/17 03:42:33;;;;;;;6.57;2.28;;;10.90;72.50;;;;;;4990358;28;20057;-87
2023/03/17 03:45:01;;;;;;;5.95;2.25;;;10.90;72.60;;;;;;4986921;28;20050;-87
2023/03/17 03:47:26;;;;;;;4.80;2.15;;;10.90;72.60;;;;;;4984072;28;20038;-85
2023/03/17 03:49:52;;;;;;;5.30;2.20;;;10.90;72.60;;;;;;4989436;28;20257;-87
2023/03/17 03:52:18;;;;;;;5.13;2.70;;;10.90;72.70;;;;;;5004167;28;20034;-86
2023/03/17 03:54:44;;;;;;;4.18;1.80;;;10.90;72.70;;;;;;5011285;28;20038;-85
2023/03/17 03:57:10;;;;;;;5.57;2.00;;;10.90;72.70;;;;;;5007542;28;20397;-87
2023/03/17 03:59:36;;;;;;;4.35;2.03;;;10.90;72.70;;;;;;5005278;28;20030;-87
2023/03/17 04:02:02;;;;;;;3.55;2.35;;;10.80;72.50;;;;;;5008009;28;20033;-87
2023/03/17 04:04:28;;;;;;;6.07;1.80;;;10.80;72.50;;;;;;5006863;28;20050;-83
2023/03/17 04:06:55;;;;;;;4.72;2.00;;;10.80;72.60;;;;;;5006736;28;20110;-82
2023/03/17 04:09:21;;;;;;;3.47;2.17;;;10.80;72.60;;;;;;4990215;28;20041;-85
2023/03/17 04:11:47;;;;;;;3.55;2.10;;;10.70;72.50;;;;;;4987624;28;20121;-85
2023/03/17 04:14:14;;;;;;;5.60;2.33;;;10.70;72.50;;;;;;4987845;28;20113;-86
2023/03/17 04:16:40;;;;;;;5.38;2.60;;;10.70;72.50;;;;;;4990272;28;20104;-84
2023/03/17 04:19:06;;;;;;;3.65;1.90;;;10.70;72.60;;;;;;4981336;28;20038;-85
2023/03/17 04:21:32;;;;;;;4.13;1.83;;;10.60;72.40;;;;;;4986215;28;20201;-84
2023/03/17 04:23:58;;;;;;;5.60;1.90;;;10.60;72.40;;;;;;4985350;28;20030;-85
2023/03/17 04:26:24;;;;;;;4.40;1.77;;;10.60;72.50;;;;;;4985339;28;20026;-84
2023/03/17 04:28:51;;;;;;;4.53;1.83;;;10.60;72.50;;;;;;4986737;28;20026;-86
2023/03/17 04:31:17;;;;;;;4.70;2.58;;;10.60;72.60;;;;;;4987181;28;20045;-85
2023/03/17 04:33:43;;;;;;;5.03;1.92;;;10.60;72.60;;;;;;4983606;28;20034;-86
2023/03/17 04:36:18;;;;;;;8.13;2.20;;;10.60;72.60;;;;;;4984986;28;20116;-86
2023/03/17 04:38:45;;;;;;;6.00;1.85;;;10.60;72.70;;;;;;4989284;28;20038;-86
2023/03/17 04:41:11;;;;;;;6.28;2.35;;;10.50;72.50;;;;;;4986094;28;20030;-84
2023/03/17 04:43:37;;;;;;;5.88;1.98;;;10.50;72.50;;;;;;4987190;28;20054;-84
2023/03/17 04:46:03;;;;;;;5.47;2.22;;;10.50;72.50;;;;;;4984416;28;20498;-86
2023/03/17 04:48:29;;;;;;;6.20;2.03;;;10.50;72.50;;;;;;4987103;28;20073;-87
2023/03/17 04:50:54;;;;;;;7.78;3.65;;;10.50;72.60;;;;;;4989520;28;20038;-86
2023/03/17 04:53:21;;;;;;;5.53;2.15;;;10.50;72.60;;;;;;4985684;28;20390;-87
2023/03/17 04:55:48;;;;;;;6.78;2.10;;;10.50;72.60;;;;;;4982539;28;20038;-86
2023/03/17 04:58:17;;;;;;;4.65;1.75;;;10.50;72.70;;;;;;4986008;28;20457;-87
2023/03/17 05:00:44;;;;;;;6.53;2.70;;;10.50;72.70;;;;;;4986525;28;20253;-85
2023/03/17 05:03:10;;;;;;;8.23;2.38;;;10.50;72.70;;;;;;4973910;28;20054;-86
2023/03/17 05:05:39;;;;;;;7.07;2.40;;;10.50;72.70;;;;;;4983932;28;20065;-85
2023/03/17 05:08:05;;;;;;;6.25;2.25;;;10.40;72.50;;;;;;4989874;28;20045;-86
2023/03/17 05:10:31;;;;;;;9.18;2.78;;;10.40;72.50;;;;;;4988459;28;20030;-85
2023/03/17 05:12:57;;;;;;;7.25;2.35;;;10.40;72.50;;;;;;4988934;28;20034;-85
2023/03/17 05:15:23;;;;;;;5.05;2.10;;;10.40;72.60;;;;;;4991116;28;20037;-86
2023/03/17 05:17:49;;;;;;;5.93;2.33;;;10.40;72.50;;;;;;4987828;28;20080;-85
2023/03/17 05:20:15;;;;;;;7.22;2.55;;;10.40;72.50;;;;;;4988334;28;20594;-85
2023/03/17 05:22:41;;;;;;;5.63;2.75;;;10.40;72.60;;;;;;4985837;28;20035;-86
2023/03/17 05:25:08;;;;;;;3.95;1.67;;;10.30;72.50;;;;;;4986797;28;20469;-85
2023/03/17 05:27:34;;;;;;;6.68;2.70;;;10.40;72.70;;;;;;4990433;28;20045;-83
2023/03/17 05:30:00;;;;;;;7.68;2.47;;;10.30;72.50;;;;;;4990188;28;20521;-87
2023/03/17 05:32:29;;;;;;;8.38;3.60;;;10.30;72.60;;;;;;4993235;28;20088;-86
2023/03/17 05:34:56;;;;;;;9.23;2.60;;;10.30;72.60;;;;;;4996849;28;20436;-86
2023/03/17 05:37:22;;;;;;;5.82;2.20;;;10.30;72.60;;;;;;4991373;28;20034;-85
2023/03/17 05:39:51;;;;;;;6.05;1.60;;;10.30;72.60;;;;;;4993203;28;20030;-87
2023/03/17 05:42:17;;;;;;;7.07;2.67;;;10.30;72.60;;;;;;4983933;28;20495;-86
2023/03/17 05:44:43;;;;;;;6.63;2.13;;;10.30;72.70;;;;;;4988908;28;20049;-84
2023/03/17 05:47:10;;;;;;;7.72;2.83;;;10.40;72.80;;;;;;4991620;28;20022;-84
2023/03/17 05:49:35;;;;;;;5.60;2.20;;;10.40;72.80;;;;;;4994284;28;20050;-86
2023/03/17 05:52:01;;;;;;;7.32;2.92;;;10.40;72.80;;;;;;4978143;28;20045;-86
2023/03/17 05:54:27;;;;;;;6.57;2.75;;;10.40;72.80;;;;;;4990007;28;20069;-84
2023/03/17 05:56:54;;;;;;;7.25;2.33;;;10.40;72.80;;;;;;4984568;28;20034;-84
2023/03/17 05:59:21;;;;;;;7.75;2.95;;;10.40;72.70;;;;;;5003781;28;20050;-84
2023/03/17 06:01:47;;;;;;;6.22;2.15;;;10.40;72.70;;;;;;4989604;28;20027;-86
2023/03/17 06:04:13;;;;;;;7.05;2.28;;;10.50;72.80;;;;;;4996898;28;20124;-86
2023/03/17 06:06:40;;;;;;;5.78;2.10;;;10.40;72.60;;;;;;4984845;28;20097;-85
2023/03/17 06:09:06;;;;;;;6.20;2.63;;;10.50;72.80;;;;;;4993476;28;20022;-86
2023/03/17 06:11:31;;;;;;;6.30;2.58;;;10.50;72.80;;;;;;4990907;28;20109;-86
2023/03/17 06:13:58;;;;;;;7.00;2.55;;;10.50;72.80;;;;;;4997465;28;20038;-88
2023/03/17 06:16:24;;;;;;;5.88;2.08;;;10.50;72.80;;;;;;4986997;28;20046;-86
2023/03/17 06:18:52;;;;;;;6.65;2.17;;;10.50;72.80;;;;;;4993245;28;20027;-87
2023/03/17 06:21:18;;;;;;;5.13;1.90;;;10.50;73.30;;;;;;4987354;28;20077;-85
2023/03/17 06:23:45;;;;;;;8.90;2.72;;;10.50;72.80;;;;;;4990561;28;20050;-86
2023/03/17 06:26:12;;;;;;;7.95;2.30;;;10.50;72.80;;;;;;4993352;28;20604;-83
2023/03/17 06:28:38;;;;;;;5.50;1.90;;;10.50;72.90;;;;;;4989461;28;20054;-85
2023/03/17 06:31:05;;;;;;;7.90;2.28;;;10.60;73.10;;;;;;4979580;28;20065;-86
2023/03/17 06:33:31;;;;;;;6.05;2.38;;;10.60;73.10;;;;;;4973972;28;20494;-84
2023/03/17 06:35:59;;;;;;;7.28;2.53;;;10.60;73.00;;;;;;4989518;28;20049;-84
2023/03/17 06:38:27;;;;;;;8.00;2.72;;;10.60;73.00;;;;;;4987607;28;20272;-82
2023/03/17 06:40:53;;;;;;;9.80;3.65;;;10.70;73.10;;;;;;4985595;28;20066;-84
2023/03/17 06:43:21;;;;;;;7.63;2.63;;;10.70;73.10;;;;;;4980868;28;20650;-82
2023/03/17 06:45:47;;;;;;;9.38;3.83;;;10.70;73.10;;;;;;4985785;28;20042;-86
2023/03/17 06:48:13;;;;;;;11.48;3.67;;;10.70;73.10;;;;;;4989856;28;20030;-81
2023/03/17 06:50:38;;;;;;;7.50;2.63;;;10.80;73.30;;;;;;4989798;28;20349;-84
2023/03/17 06:53:04;;;;;;;7.30;2.35;;;10.80;73.20;;;;;;4986336;28;20030;-89
2023/03/17 06:55:31;;;;;;;7.53;2.58;;;10.80;73.10;;;;;;4994116;28;20042;-84
2023/03/17 06:57:57;;;;;;;7.70;2.60;;;10.90;73.20;;;;;;4971387;28;20042;-83
2023/03/17 07:00:23;;;;;;;10.85;3.03;;;11.00;73.30;;;;;;4996024;28;20064;-84
2023/03/17 07:02:52;;;;;;;7.93;2.70;;;11.00;73.20;;;;;;4991630;28;20113;-80
2023/03/17 07:05:18;;;;;;;7.40;2.63;;;11.10;73.30;;;;;;4982013;28;20042;-82
2023/03/17 07:07:45;;;;;;;10.20;3.33;;;11.10;73.20;;;;;;4989896;28;20039;-84
2023/03/17 07:10:12;;;;;;;6.55;2.30;;;11.10;73.20;;;;;;4988570;28;20376;-85
2023/03/17 07:12:38;;;;;;;8.95;3.13;;;11.20;73.30;;;;;;4989798;28;20421;-85
2023/03/17 07:15:04;;;;;;;6.38;2.20;;;11.20;73.80;;;;;;4980179;28;20037;-84
2023/03/17 07:17:30;;;;;;;6.85;2.92;;;11.20;73.20;;;;;;4989269;28;20063;-82
2023/03/17 07:19:56;;;;;;;9.02;3.03;;;11.30;73.40;;;;;;4983937;28;20126;-79
2023/03/17 07:22:25;;;;;;;9.60;3.33;;;11.30;73.40;;;;;;4985697;28;20053;-86
2023/03/17 07:24:52;;;;;;;6.65;2.55;;;11.30;73.40;;;;;;4979831;28;20042;-86
2023/03/17 07:27:18;;;;;;;8.77;3.33;;;11.40;73.50;;;;;;4987564;28;20077;-85
2023/03/17 07:29:44;;;;;;;8.27;2.80;;;11.40;73.50;;;;;;4988119;28;20042;-82
2023/03/17 07:32:10;;;;;;;10.02;3.53;;;11.50;73.60;;;;;;4988187;28;20027;-87
2023/03/17 07:34:36;;;;;;;7.80;2.75;;;11.50;73.60;;;;;;4980886;28;20475;-85
2023/03/17 07:37:05;;;;;;;8.63;3.38;;;11.60;73.60;;;;;;4989368;28;20030;-88
2023/03/17 07:39:31;;;;;;;11.55;4.75;;;11.70;73.80;;;;;;4981802;28;20234;-86
2023/03/17 07:41:57;;;;;;;8.77;3.78;;;11.80;74.40;;;;;;4990853;28;20112;-89
2023/03/17 07:44:24;;;;;;;11.02;3.55;;;11.90;74.90;;;;;;4974762;28;20049;-88
2023/03/17 07:46:53;;;;;;;8.65;3.63;;;12.00;75.20;;;;;;4993180;28;20053;-89
2023/03/17 07:49:20;;;;;;;8.13;4.30;;;12.20;75.70;;;;;;4993215;28;20149;-90
2023/03/17 07:51:47;;;;;;;9.95;3.45;;;12.40;76.20;;;;;;4990463;28;20079;-87
2023/03/17 07:54:14;;;;;;;8.25;3.85;;;12.60;76.40;;;;;;4990301;28;20682;-89
2023/03/17 07:56:41;;;;;;;8.35;3.67;;;12.80;76.70;;;;;;4985560;28;20180;-88
2023/03/17 07:59:10;;;;;;;8.07;3.33;;;13.00;76.90;;;;;;4986884;28;20030;-89
2023/03/17 08:01:37;;;;;;;9.90;2.72;;;13.20;77.10;;;;;;4987119;28;20642;-89
2023/03/17 08:04:04;;;;;;;12.23;4.03;;;13.40;77.10;;;;;;4985371;28;20441;-87
2023/03/17 08:06:32;;;;;;;7.15;2.78;;;13.50;77.20;;;;;;4987003;28;20041;-89
2023/03/17 08:08:57;;;;;;;7.88;2.80;;;13.70;77.30;;;;;;4989705;28;20412;-87
2023/03/17 08:11:23;;;;;;;5.45;2.25;;;13.90;77.60;;;;;;4990253;28;20092;-89
2023/03/17 08:13:49;;;;;;;14.38;3.22;;;14.10;77.90;;;;;;4981254;28;20094;-85
2023/03/17 08:16:15;;;;;;;4.60;2.22;;;14.30;78.00;;;;;;4983964;28;20030;-85
2023/03/17 08:18:42;;;;;;;8.98;2.92;;;14.50;78.00;;;;;;4979869;28;20038;-83
2023/03/17 08:21:08;;;;;;;5.43;2.88;;;14.70;77.90;;;;;;4976700;28;20165;-83
2023/03/17 08:23:35;;;;;;;6.35;2.63;;;14.70;77.50;;;;;;4983953;28;20030;-85
2023/03/17 08:26:03;;;;;;;6.55;2.20;;;14.80;77.60;;;;;;4982064;28;20045;-83
2023/03/17 08:28:31;;;;;;;6.80;2.05;;;14.80;77.40;;;;;;4989894;28;20038;-88
2023/03/17 08:31:18;;;;;;;8.45;2.75;;;14.80;77.40;;;;;;4986969;28;20403;-84
2023/03/17 08:33:53;;;;;;;6.85;2.03;;;14.80;77.40;;;;;;4984562;28;20121;-81
2023/03/17 08:36:20;;;;;;;14.68;3.25;;;14.80;77.30;;;;;;4979990;28;20556;-83
2023/03/17 08:38:47;;;;;;;7.32;2.35;;;14.90;77.40;;;;;;4980746;28;20617;-82
2023/03/17 08:41:17;;;;;;;6.72;2.72;;;14.90;77.10;;;;;;4982078;28;20034;-83
2023/03/17 08:43:44;;;;;;;7.50;2.40;;;15.00;77.20;;;;;;4975560;28;20544;-82
2023/03/17 08:46:23;;;;;;;5.97;1.90;;;15.00;77.10;;;;;;4980732;28;20231;-83
2023/03/17 08:48:51;;;;;;;5.82;1.83;;;15.30;77.30;;;;;;4983859;28;20223;-81
2023/03/17 08:51:19;;;;;;;9.35;3.08;;;15.40;76.90;;;;;;4979297;28;20202;-83
2023/03/17 08:53:45;;;;;;;6.80;2.20;;;15.50;76.60;;;;;;4975410;28;20030;-81
2023/03/17 08:56:11;;;;;;;6.90;2.03;;;15.50;76.40;;;;;;4977891;28;20034;-81
2023/03/17 08:58:38;;;;;;;5.53;2.00;;;15.50;76.20;;;;;;4980482;28;20117;-82
2023/03/17 09:01:05;;;;;;;4.05;1.65;;;15.50;76.10;;;;;;4979110;28;20057;-81
2023/03/17 09:03:32;;;;;;;6.65;2.45;;;15.50;76.00;;;;;;4979158;28;20122;-79
2023/03/17 09:06:03;;;;;;;5.85;2.60;;;15.50;76.00;;;;;;4980206;28;20053;-80
2023/03/17 09:08:29;;;;;;;5.55;2.22;;;15.40;75.90;;;;;;4984060;28;20332;-82
2023/03/17 09:10:55;;;;;;;9.10;2.47;;;15.40;75.80;;;;;;4979859;28;20038;-81
2023/03/17 09:13:22;;;;;;;5.70;2.00;;;15.40;75.80;;;;;;4961391;28;20115;-82
2023/03/17 09:15:48;;;;;;;5.13;2.15;;;15.40;76.20;;;;;;4980125;28;20377;-81
2023/03/17 09:18:14;;;;;;;5.47;1.90;;;15.40;75.80;;;;;;4982158;28;20117;-81
2023/03/17 09:20:41;;;;;;;7.53;1.55;;;15.50;75.90;;;;;;4976022;28;20141;-85
2023/03/17 09:23:08;;;;;;;7.45;2.20;;;15.50;75.70;;;;;;4984752;28;20406;-84
2023/03/17 09:25:36;;;;;;;4.40;1.88;;;15.60;75.70;;;;;;4982245;28;20046;-85
2023/03/17 09:28:10;;;;;;;4.43;2.03;;;15.60;75.50;;;;;;4984369;28;20030;-83
2023/03/17 09:30:36;;;;;;;6.18;1.75;;;15.70;75.50;;;;;;4992569;28;20046;-83
2023/03/17 09:33:03;;;;;;;3.97;1.85;;;15.80;75.40;;;;;;5003363;28;20212;-82
2023/03/17 09:35:30;;;;;;;7.55;2.45;;;16.00;75.40;;;;;;5000630;28;20038;-84
2023/03/17 09:37:56;;;;;;;3.22;1.75;;;16.10;75.20;;;;;;5003794;28;20034;-85
2023/03/17 09:40:34;;;;;;;6.32;1.90;;;16.30;75.20;;;;;;5003834;28;20022;-83
2023/03/17 09:43:17;;;;;;;7.68;1.98;;;16.50;75.00;;;;;;5010903;28;20127;-83
2023/03/17 09:45:46;;;;;;;;;;;16.70;74.80;;;;;;5006641;28;20114;-82
2023/03/17 09:48:42;;;;;;;4.47;1.80;;;16.90;74.70;;;;;;4981677;28;20396;-86
2023/03/17 09:51:15;;;;;;;8.38;3.42;;;17.10;74.50;;;;;;4988766;28;20153;-85
2023/03/17 09:53:52;;;;;;;4.72;1.85;;;17.10;74.10;;;;;;4991814;28;20046;-82
2023/03/17 09:56:18;;;;;;;6.10;2.17;;;17.30;74.10;;;;;;4987239;28;20212;-86
2023/03/17 09:58:59;;;;;;;6.47;2.25;;;17.40;74.10;;;;;;4990091;28;20497;-90
2023/03/17 10:01:26;;;;;;;7.78;2.50;;;17.40;73.90;;;;;;4979626;28;20398;-81
2023/03/17 10:03:53;;;;;;;7.05;1.85;;;17.50;73.80;;;;;;4984151;28;20468;-82
2023/03/17 10:06:43;;;;;;;8.35;2.10;;;17.60;73.80;;;;;;4983906;28;20409;-83
2023/03/17 10:09:31;;;;;;;3.35;1.40;;;17.70;73.70;;;;;;4975187;28;20026;-82
2023/03/17 10:12:36;;;;;;;4.43;1.63;;;17.70;73.40;;;;;;4966220;28;20061;-84
2023/03/17 10:15:34;;;;;;;3.35;1.48;;;17.80;73.40;;;;;;4974936;28;20112;-81
2023/03/17 10:18:08;;;;;;;5.60;1.77;;;17.80;73.30;;;;;;4984698;28;20096;-84
2023/03/17 10:20:41;;;;;;;5.45;1.88;;;17.90;73.30;;;;;;4975776;28;20545;-86
2023/03/17 10:23:13;;;;;;;5.60;2.47;;;17.90;73.10;;;;;;4984055;28;20038;-84
2023/03/17 10:25:40;;;;;;;5.20;1.83;;;17.90;72.90;;;;;;4983973;28;20082;-84
2023/03/17 10:28:12;;;;;;;4.85;1.77;;;17.90;73.30;;;;;;4985540;28;20049;-86
2023/03/17 10:30:38;;;;;;;8.65;2.30;;;18.00;72.60;;;;;;4989087;28;20042;-87
2023/03/17 10:33:08;;;;;;;4.60;1.63;;;18.10;72.60;;;;;;4985028;28;20144;-86
2023/03/17 10:35:36;;;;;;;5.15;1.40;;;18.30;72.60;;;;;;4982601;28;20034;-88
2023/03/17 10:38:20;;;;;;;6.47;1.63;;;18.40;72.20;;;;;;4965722;28;20502;-86
2023/03/17 10:40:55;;;;;;;7.40;1.65;;;18.50;71.80;;;;;;4989004;28;20477;-85
2023/03/17 10:43:29;;;;;;;4.80;1.83;;;18.60;71.90;;;;;;4994614;28;20531;-84
2023/03/17 10:46:04;;;;;;;4.85;1.77;;;18.60;71.70;;;;;;4997064;28;20046;-88
2023/03/17 10:48:35;;;;;;;4.97;1.17;;;18.70;71.70;;;;;;4991503;28;20045;-87
2023/03/17 10:51:07;;;;;;;9.95;2.63;;;18.70;71.60;;;;;;4990915;28;20045;-86
2023/03/17 10:53:42;;;;;;;6.00;1.63;;;18.70;71.40;;;;;;4988091;28;20054;-85
2023/03/17 10:56:19;;;;;;;5.20;1.92;;;18.80;71.40;;;;;;4982560;28;20042;-84
2023/03/17 10:58:50;;;;;;;4.88;1.60;;;18.90;71.30;;;;;;5000538;28;20061;-84
2023/03/17 11:01:23;;;;;;;5.15;1.75;;;19.00;71.00;;;;;;5003853;28;20034;-87
2023/03/17 11:03:50;;;;;;;3.72;1.70;;;19.20;70.90;;;;;;4991676;28;20061;-88
2023/03/17 11:06:19;;;;;;;6.50;2.03;;;19.20;70.70;;;;;;4992431;28;20048;-88
2023/03/17 11:08:49;;;;;;;6.72;2.35;;;19.20;70.50;;;;;;4984271;28;20380;-84
2023/03/17 11:11:24;;;;;;;5.57;1.80;;;19.10;70.20;;;;;;4985670;28;20039;-86
2023/03/17 11:14:12;;;;;;;6.80;2.33;;;19.00;69.90;;;;;;4986143;28;20066;-84
2023/03/17 11:17:02;;;;;;;5.45;1.88;;;19.00;70.10;;;;;;4985614;28;20046;-85
2023/03/17 11:19:43;;;;;;;4.13;1.52;;;19.00;70.10;;;;;;4994053;28;20480;-85
2023/03/17 11:22:36;;;;;;;4.78;1.75;;;19.00;70.10;;;;;;4983960;28;20034;-82
2023/03/17 11:25:22;;;;;;;11.10;2.67;;;19.00;70.10;;;;;;4978337;28;20043;-83
2023/03/17 11:28:15;;;;;;;5.60;1.88;;;19.20;69.90;;;;;;4969095;28;20034;-82
2023/03/17 11:31:02;;;;;;;5.55;2.00;;;19.30;69.70;;;;;;4977463;28;20450;-83
2023/03/17 11:33:51;;;;;;;7.85;2.10;;;19.50;69.60;;;;;;4983440;28;20034;-83
2023/03/17 11:36:44;;;;;;;4.93;1.50;;;19.70;69.40;;;;;;4995875;28;20029;-84
2023/03/17 11:39:34;;;;;;;4.80;1.77;;;19.80;69.20;;;;;;4994357;28;20045;-83
2023/03/17 11:42:27;;;;;;;5.93;1.60;;;19.90;69.20;;;;;;4977617;28;20038;-84
2023/03/17 11:45:11;;;;;;;5.78;1.65;;;20.10;68.90;;;;;;5004847;28;20073;-85
2023/03/17 11:47:54;;;;;;;6.00;1.92;;;20.10;68.60;;;;;;4984840;28;20325;-86
2023/03/17 11:50:55;;;;;;;6.63;1.90;;;20.20;68.70;;;;;;4992799;28;20059;-81
2023/03/17 11:54:08;;;;;;;5.70;2.22;;;20.20;68.40;;;;;;4978327;28;20101;-83
2023/03/17 11:56:47;;;;;;;4.13;1.75;;;20.20;68.30;;;;;;4936735;28;20057;-83
2023/03/17 11:59:36;;;;;;;7.00;2.40;;;20.30;68.50;;;;;;5011949;28;20040;-84
2023/03/17 12:02:24;;;;;;;3.22;1.65;;;20.40;68.40;;;;;;4982369;28;20564;-82
2023/03/17 12:04:52;;;;;;;4.10;1.88;;;20.60;68.40;;;;;;4977082;28;20375;-84
2023/03/17 12:07:27;;;;;;;7.40;1.90;;;20.70;68.20;;;;;;4988148;28;20437;-83
2023/03/17 12:09:54;;;;;;;;;;;20.90;67.90;;;;;;4988937;28;20042;-82
2023/03/17 12:12:30;;;;;;;4.32;1.17;;;21.00;67.80;;;;;;4985760;28;19914;-84
2023/03/17 12:14:59;;;;;;;3.42;1.20;;;21.00;67.60;;;;;;4977884;28;20408;-85
2023/03/17 12:17:42;;;;;;;4.20;1.83;;;21.10;67.60;;;;;;4970908;28;20119;-84
2023/03/17 12:20:41;;;;;;;5.28;2.45;;;21.00;67.10;;;;;;4981497;28;20570;-86
2023/03/17 12:23:20;;;;;;;4.18;1.50;;;21.00;67.00;;;;;;4979739;28;20114;-90
2023/03/17 12:25:56;;;;;;;4.05;1.42;;;20.90;67.00;;;;;;5003545;28;20591;-88
2023/03/17 12:28:31;;;;;;;6.13;1.95;;;20.80;66.80;;;;;;5004960;28;20097;-86
2023/03/17 12:31:11;;;;;;;7.88;2.00;;;20.80;66.80;;;;;;4990338;28;20500;-88
2023/03/17 12:34:21;;;;;;;4.85;1.40;;;20.90;66.60;;;;;;4989388;28;20061;-90
2023/03/17 12:36:48;;;;;;;5.75;1.30;;;21.00;66.30;;;;;;4983719;28;20034;-86
2023/03/17 12:39:20;;;;;;;4.80;1.67;;;21.10;66.40;;;;;;4995762;28;20036;-86
2023/03/17 12:42:05;;;;;;;3.40;1.13;;;21.20;66.00;;;;;;4983831;28;20036;-86
2023/03/17 12:44:53;;;;;;;4.10;1.33;;;21.40;65.90;;;;;;4995833;28;20042;-85
2023/03/17 12:48:00;;;;;;;3.05;1.20;;;21.50;65.50;;;;;;4997346;28;20394;-85
2023/03/17 12:51:04;;;;;;;4.03;1.60;;;21.60;65.30;;;;;;4986225;28;20105;-83
2023/03/17 12:53:38;;;;;;;5.50;1.90;;;21.70;65.20;;;;;;4988418;28;20038;-82
2023/03/17 12:56:13;;;;;;;5.85;1.55;;;21.80;65.10;;;;;;4964488;28;20305;-82
2023/03/17 12:58:43;;;;;;;4.65;1.05;;;21.90;65.10;;;;;;4983264;28;20477;-84
2023/03/17 13:01:42;;;;;;;2.97;1.30;;;22.00;65.10;;;;;;4988654;28;20034;-83
2023/03/17 13:04:14;;;;;;;3.92;1.27;;;22.10;64.90;;;;;;4986366;28;20097;-91
2023/03/17 13:07:13;;;;;;;3.50;1.10;;;22.20;65.00;;;;;;4998300;28;20134;-88